Terminal Aerodrome Forecast
Issued by NWS

Current Version | Previous Version | Text Only | Print | Product List | Glossary On
Versions: 1 2 3 4 5 6 7 8 9 10 11 12 13 14 15 16
000
FTUS45 KPIH 300757 AAA
TAFSUN
TAF AMD
KSUN 300757Z 3008/3106 32010KT 5SM FU SKC
     FM301600 15010KT P6SM VCTS FEW080 SCT100CB
     FM302000 25010G20KT P6SM FEW100
     FM310400 33010KT P6SM SKC
      AMD LTD TO CLD VIS AND WIND TIL 301300=

USA.gov is the U.S. government's official web portal to all federal, state and local government web resources and services.